sensor_id;sensor_type;location;lat;lon;timestamp;P1;durP1;ratioP1;P2;durP2;ratioP2
79526;SDS011;68974;47.754;-3.364;2023-04-01T00:00:17;27.95;;;5.88;;
79526;SDS011;68974;47.754;-3.364;2023-04-01T00:02:44;26.20;;;4.95;;
79526;SDS011;68974;47.754;-3.364;2023-04-01T00:05:10;30.25;;;5.10;;
79526;SDS011;68974;47.754;-3.364;2023-04-01T00:07:36;30.50;;;4.47;;
79526;SDS011;68974;47.754;-3.364;2023-04-01T00:10:03;38.70;;;5.90;;
79526;SDS011;68974;47.754;-3.364;2023-04-01T00:12:30;33.10;;;5.93;;
79526;SDS011;68974;47.754;-3.364;2023-04-01T00:14:55;30.55;;;5.18;;
79526;SDS011;68974;47.754;-3.364;2023-04-01T00:17:21;35.58;;;5.50;;
79526;SDS011;68974;47.754;-3.364;2023-04-01T00:19:47;31.23;;;5.15;;
79526;SDS011;68974;47.754;-3.364;2023-04-01T00:22:13;35.60;;;6.18;;
79526;SDS011;68974;47.754;-3.364;2023-04-01T00:24:38;28.33;;;5.03;;
79526;SDS011;68974;47.754;-3.364;2023-04-01T00:27:04;24.02;;;3.92;;
79526;SDS011;68974;47.754;-3.364;2023-04-01T00:29:30;32.50;;;6.45;;
79526;SDS011;68974;47.754;-3.364;2023-04-01T00:31:57;25.63;;;4.00;;
79526;SDS011;68974;47.754;-3.364;2023-04-01T00:34:23;19.90;;;3.85;;
79526;SDS011;68974;47.754;-3.364;2023-04-01T00:36:49;25.48;;;4.13;;
79526;SDS011;68974;47.754;-3.364;2023-04-01T00:39:15;30.08;;;3.60;;
79526;SDS011;68974;47.754;-3.364;2023-04-01T00:41:41;26.73;;;4.53;;
79526;SDS011;68974;47.754;-3.364;2023-04-01T00:44:21;21.17;;;4.70;;
79526;SDS011;68974;47.754;-3.364;2023-04-01T00:46:51;30.40;;;6.25;;
79526;SDS011;68974;47.754;-3.364;2023-04-01T00:49:18;21.38;;;3.53;;
79526;SDS011;68974;47.754;-3.364;2023-04-01T00:54:12;11.48;;;4.00;;
79526;SDS011;68974;47.754;-3.364;2023-04-01T00:56:45;24.75;;;5.03;;
79526;SDS011;68974;47.754;-3.364;2023-04-01T00:59:16;13.52;;;2.63;;
79526;SDS011;68974;47.754;-3.364;2023-04-01T01:01:46;14.65;;;3.20;;
79526;SDS011;68974;47.754;-3.364;2023-04-01T01:12:38;17.45;;;3.28;;
79526;SDS011;68974;47.754;-3.364;2023-04-01T01:17:58;11.60;;;1.98;;
79526;SDS011;68974;47.754;-3.364;2023-04-01T01:29:25;14.05;;;2.72;;
79526;SDS011;68974;47.754;-3.364;2023-04-01T01:32:17;14.98;;;2.83;;
79526;SDS011;68974;47.754;-3.364;2023-04-01T01:37:42;21.15;;;3.20;;
79526;SDS011;68974;47.754;-3.364;2023-04-01T01:40:10;18.58;;;4.60;;
79526;SDS011;68974;47.754;-3.364;2023-04-01T01:42:37;17.95;;;2.72;;
79526;SDS011;68974;47.754;-3.364;2023-04-01T01:45:06;23.05;;;3.97;;
79526;SDS011;68974;47.754;-3.364;2023-04-01T01:47:33;14.68;;;2.53;;
79526;SDS011;68974;47.754;-3.364;2023-04-01T01:50:00;13.82;;;2.67;;
79526;SDS011;68974;47.754;-3.364;2023-04-01T01:52:28;23.67;;;4.40;;
79526;SDS011;68974;47.754;-3.364;2023-04-01T01:54:55;22.20;;;4.18;;
79526;SDS011;68974;47.754;-3.364;2023-04-01T01:57:26;21.33;;;4.28;;
79526;SDS011;68974;47.754;-3.364;2023-04-01T01:59:58;23.05;;;3.72;;
79526;SDS011;68974;47.754;-3.364;2023-04-01T02:02:29;24.30;;;4.35;;
79526;SDS011;68974;47.754;-3.364;2023-04-01T02:04:57;21.50;;;3.83;;
79526;SDS011;68974;47.754;-3.364;2023-04-01T02:07:25;26.35;;;5.03;;
79526;SDS011;68974;47.754;-3.364;2023-04-01T02:09:56;31.85;;;4.75;;
79526;SDS011;68974;47.754;-3.364;2023-04-01T02:12:21;21.92;;;3.28;;
79526;SDS011;68974;47.754;-3.364;2023-04-01T02:17:29;26.30;;;4.22;;
79526;SDS011;68974;47.754;-3.364;2023-04-01T02:20:01;18.85;;;4.28;;
79526;SDS011;68974;47.754;-3.364;2023-04-01T02:22:35;25.67;;;4.68;;
79526;SDS011;68974;47.754;-3.364;2023-04-01T02:25:30;21.73;;;2.97;;
79526;SDS011;68974;47.754;-3.364;2023-04-01T02:28:00;21.38;;;3.10;;
79526;SDS011;68974;47.754;-3.364;2023-04-01T02:30:28;16.63;;;3.38;;
79526;SDS011;68974;47.754;-3.364;2023-04-01T02:32:56;16.40;;;2.35;;
79526;SDS011;68974;47.754;-3.364;2023-04-01T02:35:23;18.33;;;3.60;;
79526;SDS011;68974;47.754;-3.364;2023-04-01T02:37:50;16.90;;;2.63;;
79526;SDS011;68974;47.754;-3.364;2023-04-01T02:40:18;15.27;;;2.20;;
79526;SDS011;68974;47.754;-3.364;2023-04-01T02:42:44;17.73;;;2.85;;
79526;SDS011;68974;47.754;-3.364;2023-04-01T02:45:10;11.40;;;2.55;;
79526;SDS011;68974;47.754;-3.364;2023-04-01T02:47:36;14.63;;;2.90;;
79526;SDS011;68974;47.754;-3.364;2023-04-01T02:50:02;13.95;;;2.08;;
79526;SDS011;68974;47.754;-3.364;2023-04-01T02:52:28;16.70;;;3.20;;
79526;SDS011;68974;47.754;-3.364;2023-04-01T02:54:54;9.85;;;2.53;;
79526;SDS011;68974;47.754;-3.364;2023-04-01T02:57:21;13.27;;;2.58;;
79526;SDS011;68974;47.754;-3.364;2023-04-01T02:59:47;11.98;;;4.00;;
79526;SDS011;68974;47.754;-3.364;2023-04-01T03:02:12;14.85;;;2.92;;
79526;SDS011;68974;47.754;-3.364;2023-04-01T03:04:38;14.40;;;2.88;;
79526;SDS011;68974;47.754;-3.364;2023-04-01T03:07:04;19.17;;;3.35;;
79526;SDS011;68974;47.754;-3.364;2023-04-01T03:09:29;16.92;;;2.78;;
79526;SDS011;68974;47.754;-3.364;2023-04-01T03:11:55;19.83;;;3.28;;
79526;SDS011;68974;47.754;-3.364;2023-04-01T03:14:20;12.80;;;2.88;;
79526;SDS011;68974;47.754;-3.364;2023-04-01T03:16:46;15.95;;;3.42;;
79526;SDS011;68974;47.754;-3.364;2023-04-01T03:19:11;15.07;;;2.55;;
79526;SDS011;68974;47.754;-3.364;2023-04-01T03:21:36;18.63;;;2.67;;
79526;SDS011;68974;47.754;-3.364;2023-04-01T03:24:02;16.08;;;2.75;;
79526;SDS011;68974;47.754;-3.364;2023-04-01T03:26:28;19.35;;;4.82;;
79526;SDS011;68974;47.754;-3.364;2023-04-01T03:28:53;21.88;;;3.17;;
79526;SDS011;68974;47.754;-3.364;2023-04-01T03:31:19;27.48;;;4.00;;
79526;SDS011;68974;47.754;-3.364;2023-04-01T03:33:44;19.60;;;3.40;;
79526;SDS011;68974;47.754;-3.364;2023-04-01T03:36:10;19.48;;;3.08;;
79526;SDS011;68974;47.754;-3.364;2023-04-01T03:38:40;21.60;;;3.03;;
79526;SDS011;68974;47.754;-3.364;2023-04-01T03:41:06;24.15;;;4.40;;
79526;SDS011;68974;47.754;-3.364;2023-04-01T03:43:32;21.10;;;3.78;;
79526;SDS011;68974;47.754;-3.364;2023-04-01T03:45:58;22.58;;;3.08;;
79526;SDS011;68974;47.754;-3.364;2023-04-01T03:48:23;17.05;;;3.05;;
79526;SDS011;68974;47.754;-3.364;2023-04-01T03:50:50;27.40;;;4.25;;
79526;SDS011;68974;47.754;-3.364;2023-04-01T03:53:16;25.92;;;4.10;;
79526;SDS011;68974;47.754;-3.364;2023-04-01T03:55:41;15.95;;;3.20;;
79526;SDS011;68974;47.754;-3.364;2023-04-01T03:58:07;16.50;;;3.33;;
79526;SDS011;68974;47.754;-3.364;2023-04-01T04:00:33;18.38;;;3.42;;
79526;SDS011;68974;47.754;-3.364;2023-04-01T04:02:58;18.75;;;3.00;;
79526;SDS011;68974;47.754;-3.364;2023-04-01T04:05:24;17.38;;;2.75;;
79526;SDS011;68974;47.754;-3.364;2023-04-01T04:07:50;19.60;;;2.72;;
79526;SDS011;68974;47.754;-3.364;2023-04-01T04:10:16;17.23;;;3.55;;
79526;SDS011;68974;47.754;-3.364;2023-04-01T04:12:42;17.65;;;3.10;;
79526;SDS011;68974;47.754;-3.364;2023-04-01T04:15:07;12.50;;;2.60;;
79526;SDS011;68974;47.754;-3.364;2023-04-01T04:17:33;9.57;;;1.90;;
79526;SDS011;68974;47.754;-3.364;2023-04-01T04:19:59;15.75;;;2.00;;
79526;SDS011;68974;47.754;-3.364;2023-04-01T04:22:24;13.85;;;2.20;;
79526;SDS011;68974;47.754;-3.364;2023-04-01T04:24:49;11.20;;;2.10;;
79526;SDS011;68974;47.754;-3.364;2023-04-01T04:27:15;15.52;;;2.30;;
79526;SDS011;68974;47.754;-3.364;2023-04-01T04:29:40;16.03;;;2.33;;
79526;SDS011;68974;47.754;-3.364;2023-04-01T04:32:06;15.60;;;2.85;;
79526;SDS011;68974;47.754;-3.364;2023-04-01T04:34:31;11.70;;;1.95;;
79526;SDS011;68974;47.754;-3.364;2023-04-01T04:36:57;8.35;;;2.22;;
79526;SDS011;68974;47.754;-3.364;2023-04-01T04:39:22;16.35;;;2.50;;
79526;SDS011;68974;47.754;-3.364;2023-04-01T04:41:48;14.57;;;2.65;;
79526;SDS011;68974;47.754;-3.364;2023-04-01T04:44:13;15.15;;;2.45;;
79526;SDS011;68974;47.754;-3.364;2023-04-01T04:46:39;14.50;;;2.70;;
79526;SDS011;68974;47.754;-3.364;2023-04-01T04:49:05;18.10;;;3.88;;
79526;SDS011;68974;47.754;-3.364;2023-04-01T04:51:30;17.10;;;2.33;;
79526;SDS011;68974;47.754;-3.364;2023-04-01T04:53:59;15.43;;;2.40;;
79526;SDS011;68974;47.754;-3.364;2023-04-01T04:56:25;14.30;;;2.35;;
79526;SDS011;68974;47.754;-3.364;2023-04-01T04:58:51;19.33;;;2.58;;
79526;SDS011;68974;47.754;-3.364;2023-04-01T05:01:17;13.73;;;3.50;;
79526;SDS011;68974;47.754;-3.364;2023-04-01T05:03:43;15.32;;;2.35;;
79526;SDS011;68974;47.754;-3.364;2023-04-01T05:06:10;12.10;;;2.28;;
79526;SDS011;68974;47.754;-3.364;2023-04-01T05:08:37;19.13;;;2.45;;
79526;SDS011;68974;47.754;-3.364;2023-04-01T05:11:06;18.05;;;2.65;;
79526;SDS011;68974;47.754;-3.364;2023-04-01T05:13:34;16.52;;;2.75;;
79526;SDS011;68974;47.754;-3.364;2023-04-01T05:16:00;13.48;;;2.50;;
79526;SDS011;68974;47.754;-3.364;2023-04-01T05:18:25;10.53;;;2.00;;
79526;SDS011;68974;47.754;-3.364;2023-04-01T05:20:51;8.85;;;2.50;;
79526;SDS011;68974;47.754;-3.364;2023-04-01T05:23:18;13.25;;;2.00;;
79526;SDS011;68974;47.754;-3.364;2023-04-01T05:28:11;18.45;;;2.83;;
79526;SDS011;68974;47.754;-3.364;2023-04-01T05:30:39;13.77;;;2.45;;
79526;SDS011;68974;47.754;-3.364;2023-04-01T05:33:06;16.98;;;2.92;;
79526;SDS011;68974;47.754;-3.364;2023-04-01T05:35:31;15.02;;;2.22;;
79526;SDS011;68974;47.754;-3.364;2023-04-01T05:37:56;10.60;;;1.70;;
79526;SDS011;68974;47.754;-3.364;2023-04-01T05:40:22;15.07;;;2.08;;
79526;SDS011;68974;47.754;-3.364;2023-04-01T05:42:47;12.95;;;2.05;;
79526;SDS011;68974;47.754;-3.364;2023-04-01T05:45:13;14.88;;;2.35;;
79526;SDS011;68974;47.754;-3.364;2023-04-01T05:47:40;12.45;;;2.35;;
79526;SDS011;68974;47.754;-3.364;2023-04-01T05:50:07;17.40;;;2.75;;
79526;SDS011;68974;47.754;-3.364;2023-04-01T05:52:33;16.90;;;2.35;;
79526;SDS011;68974;47.754;-3.364;2023-04-01T05:54:59;12.45;;;1.95;;
79526;SDS011;68974;47.754;-3.364;2023-04-01T05:57:25;13.07;;;3.28;;
79526;SDS011;68974;47.754;-3.364;2023-04-01T05:59:51;17.80;;;2.97;;
79526;SDS011;68974;47.754;-3.364;2023-04-01T06:02:17;14.90;;;3.10;;
79526;SDS011;68974;47.754;-3.364;2023-04-01T06:04:43;14.80;;;3.03;;
79526;SDS011;68974;47.754;-3.364;2023-04-01T06:07:12;20.42;;;2.20;;
79526;SDS011;68974;47.754;-3.364;2023-04-01T06:09:39;18.67;;;2.22;;
79526;SDS011;68974;47.754;-3.364;2023-04-01T06:22:47;14.70;;;2.08;;
79526;SDS011;68974;47.754;-3.364;2023-04-01T06:31:25;11.25;;;2.33;;
79526;SDS011;68974;47.754;-3.364;2023-04-01T06:37:11;7.60;;;1.92;;
79526;SDS011;68974;47.754;-3.364;2023-04-01T06:59:51;12.82;;;3.53;;
79526;SDS011;68974;47.754;-3.364;2023-04-01T07:02:36;17.92;;;5.03;;
79526;SDS011;68974;47.754;-3.364;2023-04-01T07:05:06;14.48;;;3.35;;
79526;SDS011;68974;47.754;-3.364;2023-04-01T07:07:34;7.60;;;2.35;;
79526;SDS011;68974;47.754;-3.364;2023-04-01T07:10:41;16.80;;;2.88;;
79526;SDS011;68974;47.754;-3.364;2023-04-01T07:13:12;15.20;;;3.45;;
79526;SDS011;68974;47.754;-3.364;2023-04-01T07:15:46;9.98;;;2.13;;
79526;SDS011;68974;47.754;-3.364;2023-04-01T07:18:31;12.27;;;2.35;;
79526;SDS011;68974;47.754;-3.364;2023-04-01T07:21:02;11.32;;;2.72;;
79526;SDS011;68974;47.754;-3.364;2023-04-01T07:23:38;14.07;;;2.08;;
79526;SDS011;68974;47.754;-3.364;2023-04-01T07:26:14;14.77;;;3.30;;
79526;SDS011;68974;47.754;-3.364;2023-04-01T07:28:43;13.02;;;2.05;;
79526;SDS011;68974;47.754;-3.364;2023-04-01T07:34:04;16.10;;;2.47;;
79526;SDS011;68974;47.754;-3.364;2023-04-01T07:36:39;12.98;;;2.90;;
79526;SDS011;68974;47.754;-3.364;2023-04-01T07:39:12;10.63;;;2.55;;
79526;SDS011;68974;47.754;-3.364;2023-04-01T07:45:05;12.75;;;2.30;;
79526;SDS011;68974;47.754;-3.364;2023-04-01T08:01:18;13.93;;;2.15;;
79526;SDS011;68974;47.754;-3.364;2023-04-01T08:12:04;10.95;;;1.90;;
79526;SDS011;68974;47.754;-3.364;2023-04-01T08:14:43;10.73;;;2.20;;
79526;SDS011;68974;47.754;-3.364;2023-04-01T08:23:06;18.40;;;3.28;;
79526;SDS011;68974;47.754;-3.364;2023-04-01T08:25:39;23.80;;;3.83;;
79526;SDS011;68974;47.754;-3.364;2023-04-01T08:28:11;12.23;;;2.47;;
79526;SDS011;68974;47.754;-3.364;2023-04-01T08:33:20;12.35;;;1.88;;
79526;SDS011;68974;47.754;-3.364;2023-04-01T08:35:53;10.60;;;2.00;;
79526;SDS011;68974;47.754;-3.364;2023-04-01T08:38:27;13.68;;;2.58;;
79526;SDS011;68974;47.754;-3.364;2023-04-01T08:41:01;14.73;;;1.90;;
79526;SDS011;68974;47.754;-3.364;2023-04-01T08:43:46;21.10;;;3.08;;
79526;SDS011;68974;47.754;-3.364;2023-04-01T09:00:33;10.60;;;1.55;;
79526;SDS011;68974;47.754;-3.364;2023-04-01T09:03:20;6.90;;;2.30;;
79526;SDS011;68974;47.754;-3.364;2023-04-01T09:06:13;9.23;;;1.35;;
79526;SDS011;68974;47.754;-3.364;2023-04-01T09:11:24;10.27;;;1.85;;
79526;SDS011;68974;47.754;-3.364;2023-04-01T09:14:26;10.93;;;1.92;;
79526;SDS011;68974;47.754;-3.364;2023-04-01T09:45:00;7.70;;;1.75;;
79526;SDS011;68974;47.754;-3.364;2023-04-01T10:01:25;7.55;;;1.48;;
79526;SDS011;68974;47.754;-3.364;2023-04-01T10:09:29;18.52;;;3.15;;
79526;SDS011;68974;47.754;-3.364;2023-04-01T10:15:22;10.40;;;2.67;;
79526;SDS011;68974;47.754;-3.364;2023-04-01T10:18:12;7.00;;;1.35;;
79526;SDS011;68974;47.754;-3.364;2023-04-01T10:32:00;23.05;;;3.20;;
79526;SDS011;68974;47.754;-3.364;2023-04-01T10:48:09;9.98;;;2.80;;
79526;SDS011;68974;47.754;-3.364;2023-04-01T11:04:25;7.85;;;1.38;;
79526;SDS011;68974;47.754;-3.364;2023-04-01T11:32:54;6.30;;;1.55;;
79526;SDS011;68974;47.754;-3.364;2023-04-01T11:35:42;7.95;;;1.48;;
79526;SDS011;68974;47.754;-3.364;2023-04-01T11:46:04;9.65;;;1.92;;
79526;SDS011;68974;47.754;-3.364;2023-04-01T11:53:47;8.68;;;2.22;;
79526;SDS011;68974;47.754;-3.364;2023-04-01T11:56:45;8.45;;;2.17;;
79526;SDS011;68974;47.754;-3.364;2023-04-01T12:16:23;4.65;;;1.05;;
79526;SDS011;68974;47.754;-3.364;2023-04-01T12:35:25;9.90;;;3.25;;
79526;SDS011;68974;47.754;-3.364;2023-04-01T12:41:00;13.02;;;2.78;;
79526;SDS011;68974;47.754;-3.364;2023-04-01T12:46:30;11.77;;;3.58;;
79526;SDS011;68974;47.754;-3.364;2023-04-01T13:05:33;10.52;;;2.40;;
79526;SDS011;68974;47.754;-3.364;2023-04-01T13:14:05;12.82;;;2.38;;
79526;SDS011;68974;47.754;-3.364;2023-04-01T13:22:57;5.90;;;1.85;;
79526;SDS011;68974;47.754;-3.364;2023-04-01T13:25:36;6.80;;;1.92;;
79526;SDS011;68974;47.754;-3.364;2023-04-01T13:28:15;6.10;;;1.52;;
79526;SDS011;68974;47.754;-3.364;2023-04-01T13:30:54;10.52;;;2.53;;
79526;SDS011;68974;47.754;-3.364;2023-04-01T13:43:48;10.10;;;2.50;;
79526;SDS011;68974;47.754;-3.364;2023-04-01T14:06:27;6.32;;;1.77;;
79526;SDS011;68974;47.754;-3.364;2023-04-01T14:22:39;3.97;;;2.65;;
79526;SDS011;68974;47.754;-3.364;2023-04-01T14:47:36;10.52;;;1.30;;
79526;SDS011;68974;47.754;-3.364;2023-04-01T14:50:22;4.72;;;1.17;;
79526;SDS011;68974;47.754;-3.364;2023-04-01T14:52:57;7.38;;;1.58;;
79526;SDS011;68974;47.754;-3.364;2023-04-01T15:00:40;6.28;;;1.48;;
79526;SDS011;68974;47.754;-3.364;2023-04-01T15:11:42;4.10;;;0.98;;
79526;SDS011;68974;47.754;-3.364;2023-04-01T15:14:27;7.00;;;1.70;;
79526;SDS011;68974;47.754;-3.364;2023-04-01T15:24:52;5.25;;;1.30;;
79526;SDS011;68974;47.754;-3.364;2023-04-01T15:44:00;3.50;;;1.15;;
79526;SDS011;68974;47.754;-3.364;2023-04-01T15:46:36;3.90;;;1.20;;
79526;SDS011;68974;47.754;-3.364;2023-04-01T15:49:10;4.60;;;1.02;;
79526;SDS011;68974;47.754;-3.364;2023-04-01T15:52:06;7.55;;;1.10;;
79526;SDS011;68974;47.754;-3.364;2023-04-01T16:03:30;6.38;;;1.58;;
79526;SDS011;68974;47.754;-3.364;2023-04-01T16:06:11;6.53;;;1.75;;
79526;SDS011;68974;47.754;-3.364;2023-04-01T16:19:49;6.28;;;1.13;;
79526;SDS011;68974;47.754;-3.364;2023-04-01T16:30:44;6.53;;;1.40;;
79526;SDS011;68974;47.754;-3.364;2023-04-01T16:36:01;4.07;;;1.10;;
79526;SDS011;68974;47.754;-3.364;2023-04-01T16:41:47;6.18;;;1.60;;
79526;SDS011;68974;47.754;-3.364;2023-04-01T16:44:21;7.00;;;1.25;;
79526;SDS011;68974;47.754;-3.364;2023-04-01T16:55:33;2.33;;;1.00;;
79526;SDS011;68974;47.754;-3.364;2023-04-01T16:58:00;1.92;;;0.75;;
79526;SDS011;68974;47.754;-3.364;2023-04-01T17:00:28;3.63;;;1.20;;
79526;SDS011;68974;47.754;-3.364;2023-04-01T17:28:05;5.90;;;1.33;;
79526;SDS011;68974;47.754;-3.364;2023-04-01T17:30:40;5.60;;;1.00;;
79526;SDS011;68974;47.754;-3.364;2023-04-01T17:33:11;11.75;;;2.75;;
79526;SDS011;68974;47.754;-3.364;2023-04-01T17:47:05;4.53;;;1.00;;
79526;SDS011;68974;47.754;-3.364;2023-04-01T17:49:58;3.63;;;1.20;;
79526;SDS011;68974;47.754;-3.364;2023-04-01T17:52:37;6.75;;;1.23;;
79526;SDS011;68974;47.754;-3.364;2023-04-01T17:58:00;2.88;;;1.00;;
79526;SDS011;68974;47.754;-3.364;2023-04-01T18:01:17;3.83;;;1.10;;
79526;SDS011;68974;47.754;-3.364;2023-04-01T18:20:54;2.88;;;1.35;;
79526;SDS011;68974;47.754;-3.364;2023-04-01T18:23:43;5.88;;;1.67;;
79526;SDS011;68974;47.754;-3.364;2023-04-01T18:26:18;4.82;;;1.10;;
79526;SDS011;68974;47.754;-3.364;2023-04-01T18:28:52;4.78;;;2.17;;
79526;SDS011;68974;47.754;-3.364;2023-04-01T18:31:24;4.60;;;0.98;;
79526;SDS011;68974;47.754;-3.364;2023-04-01T18:34:00;4.53;;;1.20;;
79526;SDS011;68974;47.754;-3.364;2023-04-01T18:39:22;4.25;;;1.58;;
79526;SDS011;68974;47.754;-3.364;2023-04-01T18:45:01;5.13;;;1.50;;
79526;SDS011;68974;47.754;-3.364;2023-04-01T18:52:49;7.50;;;1.70;;
79526;SDS011;68974;47.754;-3.364;2023-04-01T18:55:29;4.57;;;1.50;;
79526;SDS011;68974;47.754;-3.364;2023-04-01T19:03:39;5.57;;;1.90;;
79526;SDS011;68974;47.754;-3.364;2023-04-01T19:08:51;5.65;;;1.70;;
79526;SDS011;68974;47.754;-3.364;2023-04-01T19:11:32;3.60;;;1.40;;
79526;SDS011;68974;47.754;-3.364;2023-04-01T19:14:11;9.00;;;1.63;;
79526;SDS011;68974;47.754;-3.364;2023-04-01T19:16:51;5.57;;;1.48;;
79526;SDS011;68974;47.754;-3.364;2023-04-01T19:19:34;4.05;;;1.08;;
79526;SDS011;68974;47.754;-3.364;2023-04-01T19:33:58;4.82;;;1.40;;
79526;SDS011;68974;47.754;-3.364;2023-04-01T19:36:47;4.70;;;1.35;;
79526;SDS011;68974;47.754;-3.364;2023-04-01T19:52:53;3.30;;;0.95;;
79526;SDS011;68974;47.754;-3.364;2023-04-01T19:55:44;3.50;;;0.98;;
79526;SDS011;68974;47.754;-3.364;2023-04-01T19:58:31;3.70;;;1.25;;
79526;SDS011;68974;47.754;-3.364;2023-04-01T20:01:04;4.45;;;1.38;;
79526;SDS011;68974;47.754;-3.364;2023-04-01T20:03:48;4.35;;;1.25;;
79526;SDS011;68974;47.754;-3.364;2023-04-01T20:06:31;3.00;;;1.05;;
79526;SDS011;68974;47.754;-3.364;2023-04-01T20:15:00;3.58;;;0.98;;
79526;SDS011;68974;47.754;-3.364;2023-04-01T20:17:33;2.85;;;1.10;;
79526;SDS011;68974;47.754;-3.364;2023-04-01T20:27:54;8.20;;;1.48;;
79526;SDS011;68974;47.754;-3.364;2023-04-01T20:30:31;7.20;;;1.40;;
79526;SDS011;68974;47.754;-3.364;2023-04-01T20:41:39;4.05;;;1.60;;
79526;SDS011;68974;47.754;-3.364;2023-04-01T20:46:48;3.55;;;1.00;;
79526;SDS011;68974;47.754;-3.364;2023-04-01T20:51:54;5.07;;;1.30;;
79526;SDS011;68974;47.754;-3.364;2023-04-01T20:57:21;6.47;;;1.90;;
79526;SDS011;68974;47.754;-3.364;2023-04-01T21:14:01;5.57;;;1.25;;
79526;SDS011;68974;47.754;-3.364;2023-04-01T21:44:06;5.13;;;1.52;;
79526;SDS011;68974;47.754;-3.364;2023-04-01T22:06:39;6.20;;;1.67;;
79526;SDS011;68974;47.754;-3.364;2023-04-01T22:09:21;6.97;;;1.75;;
79526;SDS011;68974;47.754;-3.364;2023-04-01T22:14:41;6.75;;;2.67;;
79526;SDS011;68974;47.754;-3.364;2023-04-01T22:20:03;4.18;;;1.52;;
79526;SDS011;68974;47.754;-3.364;2023-04-01T22:28:28;7.25;;;1.85;;
79526;SDS011;68974;47.754;-3.364;2023-04-01T22:31:02;3.22;;;1.40;;
79526;SDS011;68974;47.754;-3.364;2023-04-01T22:41:37;7.03;;;1.58;;
79526;SDS011;68974;47.754;-3.364;2023-04-01T22:44:38;6.90;;;1.50;;
79526;SDS011;68974;47.754;-3.364;2023-04-01T22:47:08;5.18;;;1.27;;
79526;SDS011;68974;47.754;-3.364;2023-04-01T22:52:30;7.85;;;1.20;;
79526;SDS011;68974;47.754;-3.364;2023-04-01T22:55:32;7.93;;;1.45;;
79526;SDS011;68974;47.754;-3.364;2023-04-01T23:00:41;4.85;;;1.70;;
79526;SDS011;68974;47.754;-3.364;2023-04-01T23:03:32;7.20;;;1.08;;
79526;SDS011;68974;47.754;-3.364;2023-04-01T23:06:05;5.82;;;1.38;;
79526;SDS011;68974;47.754;-3.364;2023-04-01T23:11:04;10.55;;;2.10;;
79526;SDS011;68974;47.754;-3.364;2023-04-01T23:13:34;9.73;;;1.60;;
79526;SDS011;68974;47.754;-3.364;2023-04-01T23:16:03;5.97;;;1.48;;
79526;SDS011;68974;47.754;-3.364;2023-04-01T23:24:41;7.72;;;1.30;;
79526;SDS011;68974;47.754;-3.364;2023-04-01T23:27:40;4.03;;;1.35;;
79526;SDS011;68974;47.754;-3.364;2023-04-01T23:38:34;5.85;;;1.40;;
79526;SDS011;68974;47.754;-3.364;2023-04-01T23:41:02;5.72;;;1.17;;
79526;SDS011;68974;47.754;-3.364;2023-04-01T23:43:30;3.05;;;1.33;;
79526;SDS011;68974;47.754;-3.364;2023-04-01T23:45:58;4.63;;;1.42;;
79526;SDS011;68974;47.754;-3.364;2023-04-01T23:48:38;3.35;;;1.20;;
79526;SDS011;68974;47.754;-3.364;2023-04-01T23:54:25;11.10;;;2.75;;
79526;SDS011;68974;47.754;-3.364;2023-04-01T23:56:57;8.52;;;1.77;;
79526;SDS011;68974;47.754;-3.364;2023-04-01T23:59:24;4.50;;;1.17;;
